Chiva, Spain
Current Conditions -  °F | °C
As of 10:00 PM on Saturday 22 Nov 2014 (Local Time) from LEVC Reporting Station
Scattered Clouds Scattered Clouds  
Wind Chill: 61°   Ceiling: Unl
Heat Index: 61°   Visibility: 4mi
Dew Point: 59°   Wind: 3mph
Humidity: 94%   Direction: 330°NNW
Pressure: 30.03"   Gusts: NA
Location:  39.47°N, 0.72°W
Report Text: LEVC 222100Z 33003KT 6000 SCT012 SCT020 16/15 Q1017 NOSIG
Loading
Personal Weather Stations






























Interactive Weather Map New forecast layout! Learn more

10-Day Weather Forecast

Advertisements
Track Severe Weather on mobile